TimeCDT,TemperatureF,Dew PointF,Humidity,Sea Level PressureIn,VisibilityMPH,Wind Direction,Wind SpeedMPH,Gust SpeedMPH,PrecipitationIn,Events,Conditions,WindDirDegrees,DateUTC
12:53 AM,79.0,73.9,84,29.86,10.0,Calm,Calm,-,N/A,,Scattered Clouds,0,2013-06-28 05:53:00
1:51 AM,80.6,71.6,74,29.88,10.0,SW,4.6,-,N/A,Thunderstorm,Partly Cloudy,220,2013-06-28 06:51:00
1:53 AM,80.1,72.0,76,29.82,10.0,SSW,3.5,-,N/A,Thunderstorm,Partly Cloudy,210,2013-06-28 06:53:00
2:10 AM,80.6,71.6,74,29.87,10.0,Calm,Calm,-,N/A,,Partly Cloudy,0,2013-06-28 07:10:00
2:20 AM,78.8,71.6,78,29.87,10.0,Calm,Calm,-,N/A,Thunderstorm,Partly Cloudy,0,2013-06-28 07:20:00
2:35 AM,78.8,73.4,83,29.86,10.0,SW,3.5,-,N/A,,Scattered Clouds,230,2013-06-28 07:35:00
2:53 AM,79.0,72.0,79,29.82,10.0,Calm,Calm,-,N/A,,Mostly Cloudy,0,2013-06-28 07:53:00
3:08 AM,78.8,73.4,83,29.89,10.0,North,4.6,-,N/A,Thunderstorm,Mostly Cloudy,10,2013-06-28 08:08:00
3:28 AM,73.4,68.0,83,30.00,1.8,NNW,32.2,47.2,0.18,Rain-Thunderstorm,Light Thunderstorms and Rain,330,2013-06-28 08:28:00
3:31 AM,69.8,66.2,88,29.97,0.8,NNW,27.6,47.2,0.35,Rain-Thunderstorm,Heavy Thunderstorms and Rain,340,2013-06-28 08:31:00
3:39 AM,69.8,66.2,88,29.95,1.2,NNW,24.2,46.0,0.49,Rain-Thunderstorm,Heavy Thunderstorms and Rain,340,2013-06-28 08:39:00
3:43 AM,69.8,66.2,88,29.95,3.0,NNW,19.6,33.4,0.50,Rain-Thunderstorm,Light Thunderstorms and Rain,340,2013-06-28 08:43:00
3:53 AM,69.1,66.9,93,29.89,7.0,North,16.1,28.8,0.53,Rain-Thunderstorm,Thunderstorms and Rain,350,2013-06-28 08:53:00
4:20 AM,69.8,66.2,88,29.90,10.0,Calm,Calm,-,0.02,Rain,Light Rain,0,2013-06-28 09:20:00
4:53 AM,69.1,66.9,93,29.87,10.0,NW,10.4,-,0.05,Rain,Light Rain,310,2013-06-28 09:53:00
5:53 AM,69.1,66.9,93,29.81,10.0,NNE,4.6,-,0.03,Rain,Light Rain,20,2013-06-28 10:53:00
6:53 AM,69.1,66.9,93,29.85,10.0,SW,5.8,-,0.00,,Clear,220,2013-06-28 11:53:00
7:53 AM,71.1,69.1,93,29.85,10.0,NW,3.5,-,N/A,,Clear,310,2013-06-28 12:53:00
8:53 AM,73.9,69.1,85,29.88,10.0,West,5.8,-,N/A,,Mostly Cloudy,270,2013-06-28 13:53:00
9:53 AM,80.1,68.0,67,29.88,10.0,North,10.4,-,0.01,,Clear,350,2013-06-28 14:53:00
10:53 AM,82.0,70.0,67,29.88,10.0,North,9.2,-,N/A,,Clear,10,2013-06-28 15:53:00
11:53 AM,84.9,66.9,55,29.88,10.0,NNW,6.9,-,N/A,,Clear,330,2013-06-28 16:53:00
12:53 PM,87.1,63.0,44,29.87,10.0,North,8.1,-,N/A,,Clear,350,2013-06-28 17:53:00
1:53 PM,87.1,62.1,43,29.84,10.0,WNW,9.2,17.3,N/A,,Clear,300,2013-06-28 18:53:00
2:53 PM,87.1,62.1,43,29.82,10.0,NNW,8.1,16.1,N/A,,Mostly Cloudy,330,2013-06-28 19:53:00
4:53 PM,84.0,64.0,51,29.80,10.0,NW,11.5,-,N/A,,Mostly Cloudy,320,2013-06-28 21:53:00
5:53 PM,87.1,66.9,51,29.79,10.0,NNW,8.1,-,N/A,,Overcast,340,2013-06-28 22:53:00
7:53 PM,80.1,64.0,58,29.79,10.0,NW,6.9,-,N/A,,Clear,320,2013-06-29 00:53:00
8:53 PM,77.0,62.1,60,29.80,10.0,NW,5.8,-,N/A,,Clear,310,2013-06-29 01:53:00
9:53 PM,73.9,62.1,66,29.80,10.0,NW,5.8,-,N/A,,Clear,310,2013-06-29 02:53:00
10:53 PM,73.9,59.0,59,29.80,10.0,NW,8.1,-,N/A,,Clear,320,2013-06-29 03:53:00
11:53 PM,71.1,57.9,63,29.81,10.0,NW,5.8,-,N/A,,Clear,310,2013-06-29 04:53:00